createdAt,value
2022-11-13T00:01:30.435Z,97.70
2022-11-13T00:03:58.299Z,97.70
2022-11-13T00:06:25.317Z,97.70
2022-11-13T00:08:55.483Z,97.70
2022-11-13T00:11:22.341Z,97.70
2022-11-13T00:13:49.899Z,97.70
2022-11-13T00:16:17.671Z,97.60
2022-11-13T00:18:44.810Z,97.60
2022-11-13T00:21:13.693Z,97.70
2022-11-13T00:23:40.726Z,97.70
2022-11-13T00:26:11.693Z,97.60
2022-11-13T00:28:38.494Z,97.70
2022-11-13T00:31:06.636Z,97.70
2022-11-13T00:36:25.866Z,97.70
2022-11-13T00:38:54.007Z,97.60
2022-11-13T00:41:21.119Z,97.70
2022-11-13T00:43:48.046Z,97.70
2022-11-13T00:46:14.754Z,97.70
2022-11-13T00:48:41.452Z,97.60
2022-11-13T00:51:08.274Z,97.60
2022-11-13T00:53:35.165Z,97.70
2022-11-13T00:56:02.224Z,97.70
2022-11-13T00:58:29.267Z,97.60
2022-11-13T01:00:56.197Z,97.60
2022-11-13T01:03:23.012Z,97.70
2022-11-13T01:05:49.762Z,97.70
2022-11-13T01:08:16.641Z,97.60
2022-11-13T01:10:48.806Z,97.70
2022-11-13T01:13:18.926Z,97.60
2022-11-13T01:15:45.826Z,97.70
2022-11-13T01:18:13.105Z,97.60
2022-11-13T01:20:40.136Z,97.60
2022-11-13T01:23:07.249Z,97.60
2022-11-13T01:25:34.138Z,97.60
2022-11-13T01:28:01.119Z,97.70
2022-11-13T01:30:27.948Z,97.70
2022-11-13T01:32:54.621Z,97.70
2022-11-13T01:35:21.389Z,97.70
2022-11-13T01:37:48.085Z,97.60
2022-11-13T01:40:14.876Z,97.70
2022-11-13T01:42:41.712Z,97.60
2022-11-13T01:45:27.204Z,97.60
2022-11-13T01:47:54.013Z,97.70
2022-11-13T01:50:20.730Z,97.70
2022-11-13T01:52:47.478Z,97.60
2022-11-13T01:55:16.096Z,97.60
2022-11-13T01:57:42.850Z,97.60
2022-11-13T02:00:11.306Z,97.50
2022-11-13T02:02:38.383Z,97.60
2022-11-13T02:05:08.617Z,97.60
2022-11-13T02:07:35.434Z,97.60
2022-11-13T02:10:02.197Z,97.60
2022-11-13T02:12:34.541Z,97.60
2022-11-13T02:15:02.671Z,97.60
2022-11-13T02:17:31.098Z,97.60
2022-11-13T02:20:00.097Z,97.60
2022-11-13T02:22:50.237Z,97.60
2022-11-13T02:25:18.074Z,97.60
2022-11-13T02:27:45.991Z,97.60
2022-11-13T02:30:23.759Z,97.60
2022-11-13T02:32:54.510Z,97.60
2022-11-13T02:35:21.322Z,97.60
2022-11-13T02:37:48.189Z,97.60
2022-11-13T02:40:15.001Z,97.60
2022-11-13T02:42:42.109Z,97.60
2022-11-13T02:45:09.304Z,97.60
2022-11-13T02:47:36.144Z,97.60
2022-11-13T02:50:03.111Z,97.60
2022-11-13T02:52:30.675Z,97.60
2022-11-13T02:54:57.513Z,97.70
2022-11-13T02:57:24.318Z,97.60
2022-11-13T02:59:51.157Z,97.60
2022-11-13T03:02:18.022Z,97.60
2022-11-13T03:05:10.805Z,97.90
2022-11-13T03:07:32.990Z,97.60
2022-11-13T03:09:59.795Z,97.60
2022-11-13T03:12:26.661Z,97.60
2022-11-13T03:14:53.383Z,97.60
2022-11-13T03:17:20.250Z,97.60
2022-11-13T03:19:46.964Z,97.60
2022-11-13T03:22:13.791Z,97.50
2022-11-13T03:24:40.802Z,97.60
2022-11-13T03:27:07.492Z,97.60
2022-11-13T03:29:34.260Z,97.50
2022-11-13T03:32:03.290Z,97.60
2022-11-13T03:34:30.013Z,97.60
2022-11-13T03:36:56.791Z,97.60
2022-11-13T03:39:23.857Z,97.60
2022-11-13T03:41:50.544Z,97.60
2022-11-13T03:44:26.035Z,97.60
2022-11-13T03:46:59.953Z,97.60
2022-11-13T03:49:26.777Z,97.50
2022-11-13T03:51:53.611Z,97.60
2022-11-13T03:54:20.291Z,97.50
2022-11-13T03:56:47.200Z,97.50
2022-11-13T03:59:13.957Z,97.50
2022-11-13T04:01:40.889Z,97.50
2022-11-13T04:04:07.636Z,97.50
2022-11-13T04:06:34.514Z,97.40
2022-11-13T04:09:01.581Z,97.40
2022-11-13T04:11:28.344Z,97.40
2022-11-13T04:13:55.080Z,97.40
2022-11-13T04:16:21.851Z,97.40
2022-11-13T04:18:48.803Z,97.40
2022-11-13T04:21:15.639Z,97.40
2022-11-13T04:23:42.512Z,97.40
2022-11-13T04:26:09.635Z,97.40
2022-11-13T04:28:36.480Z,97.40
2022-11-13T04:31:03.216Z,97.40
2022-11-13T04:33:30.094Z,97.40
2022-11-13T04:35:56.760Z,97.40
2022-11-13T04:38:23.448Z,97.40
2022-11-13T04:40:51.688Z,97.40
2022-11-13T04:43:18.369Z,97.40
2022-11-13T04:45:45.040Z,97.40
2022-11-13T04:48:12.102Z,97.40
2022-11-13T04:50:38.967Z,97.40
2022-11-13T04:53:05.896Z,97.40
2022-11-13T04:55:32.646Z,97.40
2022-11-13T04:57:59.474Z,97.40
2022-11-13T05:00:26.161Z,97.70
2022-11-13T05:02:52.949Z,97.50
2022-11-13T05:05:19.714Z,97.40
2022-11-13T05:07:46.421Z,97.30
2022-11-13T05:10:13.195Z,97.40
2022-11-13T05:12:39.889Z,97.30
2022-11-13T05:15:06.856Z,97.40
2022-11-13T05:17:33.575Z,97.30
2022-11-13T05:20:00.303Z,97.30
2022-11-13T05:22:27.036Z,97.40
2022-11-13T05:24:53.763Z,97.30
2022-11-13T05:27:20.576Z,97.30
2022-11-13T05:29:47.287Z,97.30
2022-11-13T05:32:14.011Z,97.60
2022-11-13T05:34:40.733Z,97.30
2022-11-13T05:37:07.440Z,97.30
2022-11-13T05:39:34.232Z,97.30
2022-11-13T05:42:00.904Z,97.30
2022-11-13T05:44:27.586Z,97.30
2022-11-13T05:46:54.309Z,97.40
2022-11-13T05:49:20.996Z,97.30
2022-11-13T05:51:47.706Z,97.30
2022-11-13T05:54:14.530Z,97.30
2022-11-13T05:56:41.241Z,97.30
2022-11-13T05:59:08.000Z,97.30
2022-11-13T06:01:38.720Z,97.20
2022-11-13T06:04:06.476Z,97.20
2022-11-13T06:06:33.868Z,97.20
2022-11-13T06:09:02.092Z,97.20
2022-11-13T06:11:29.647Z,97.10
2022-11-13T06:13:56.938Z,97.10
2022-11-13T06:16:25.007Z,97.10
2022-11-13T06:18:54.564Z,97.20
2022-11-13T06:21:22.323Z,97.10
2022-11-13T06:23:49.211Z,97.10
2022-11-13T06:26:18.437Z,97.10
2022-11-13T06:28:45.569Z,97.10
2022-11-13T06:31:13.944Z,97.10
2022-11-13T06:33:41.716Z,97.10
2022-11-13T06:36:10.955Z,97.10
2022-11-13T06:38:38.714Z,97.00
2022-11-13T06:41:05.945Z,97.00
2022-11-13T06:43:32.918Z,97.00
2022-11-13T06:46:03.189Z,97.00
2022-11-13T06:48:30.096Z,97.00
2022-11-13T06:51:00.333Z,97.00
2022-11-13T06:53:27.112Z,97.00
2022-11-13T06:55:53.848Z,97.10
2022-11-13T06:58:20.610Z,97.00
2022-11-13T07:00:47.948Z,97.00
2022-11-13T07:03:18.410Z,97.00
2022-11-13T07:05:45.694Z,97.00
2022-11-13T07:08:12.969Z,96.90
2022-11-13T07:10:39.837Z,96.90
2022-11-13T07:13:06.622Z,96.90
2022-11-13T07:15:35.119Z,96.80
2022-11-13T07:18:02.567Z,96.80
2022-11-13T07:20:29.750Z,96.80
2022-11-13T07:23:00.603Z,96.80
2022-11-13T07:25:28.032Z,96.70
2022-11-13T07:27:54.774Z,96.70
2022-11-13T07:30:21.935Z,96.80
2022-11-13T07:32:48.707Z,96.80
2022-11-13T07:35:16.855Z,96.80
2022-11-13T07:37:44.041Z,96.90
2022-11-13T07:40:11.344Z,96.90
2022-11-13T07:42:38.626Z,96.80
2022-11-13T07:45:05.722Z,96.90
2022-11-13T07:47:32.632Z,97.00
2022-11-13T07:50:05.664Z,97.00
2022-11-13T07:52:36.613Z,97.00
2022-11-13T07:55:03.454Z,97.10
2022-11-13T07:57:30.251Z,97.10
2022-11-13T07:59:57.094Z,97.10
2022-11-13T08:02:26.675Z,97.10
2022-11-13T08:04:53.631Z,97.10
2022-11-13T08:07:20.491Z,97.10
2022-11-13T08:09:47.257Z,97.20
2022-11-13T08:12:14.212Z,97.30
2022-11-13T08:14:41.026Z,97.20
2022-11-13T08:17:07.764Z,97.30
2022-11-13T08:19:34.442Z,97.20
2022-11-13T08:22:01.190Z,97.40
2022-11-13T08:24:27.876Z,97.10
2022-11-13T08:26:54.599Z,97.20
2022-11-13T08:29:21.383Z,97.20
2022-11-13T08:31:48.159Z,97.00
2022-11-13T08:34:14.918Z,97.20
2022-11-13T08:36:41.712Z,97.20
2022-11-13T08:39:09.081Z,97.20
2022-11-13T08:41:35.827Z,97.20
2022-11-13T08:44:02.630Z,97.20
2022-11-13T08:46:29.374Z,97.10
2022-11-13T08:48:56.163Z,97.20
2022-11-13T08:51:22.953Z,97.10
2022-11-13T08:53:49.645Z,97.10
2022-11-13T08:56:18.445Z,97.10
2022-11-13T08:58:45.247Z,94.40
2022-11-13T09:01:11.996Z,93.70
2022-11-13T09:03:38.778Z,93.40
2022-11-13T09:06:06.510Z,92.60
2022-11-13T09:08:33.472Z,93.40
2022-11-13T09:11:04.566Z,93.30
2022-11-13T09:13:31.853Z,93.20
2022-11-13T09:15:59.593Z,93.30
2022-11-13T09:18:26.755Z,92.70
2022-11-13T09:20:54.301Z,93.60
2022-11-13T09:23:21.069Z,93.50
2022-11-13T09:25:48.310Z,93.50
2022-11-13T09:28:15.060Z,93.40
2022-11-13T09:30:41.789Z,93.50
2022-11-13T09:33:10.037Z,92.50
2022-11-13T09:35:36.869Z,92.80
2022-11-13T09:38:11.657Z,93.70
2022-11-13T09:40:47.746Z,92.70
2022-11-13T09:43:37.616Z,92.70
2022-11-13T09:46:07.405Z,94.00
2022-11-13T09:48:38.452Z,93.50
2022-11-13T09:51:10.235Z,94.50
2022-11-13T09:53:38.427Z,93.60
2022-11-13T09:56:09.568Z,93.40
2022-11-13T09:58:39.215Z,92.80
2022-11-13T10:01:09.605Z,93.30
2022-11-13T10:03:59.903Z,93.90
2022-11-13T10:06:38.297Z,93.30
2022-11-13T10:09:31.435Z,93.30
2022-11-13T10:12:00.880Z,94.40
2022-11-13T10:14:30.403Z,94.20
2022-11-13T10:17:12.453Z,92.90
2022-11-13T10:19:42.603Z,92.70
2022-11-13T10:22:34.182Z,92.60
2022-11-13T10:25:20.519Z,93.50
2022-11-13T10:28:35.026Z,92.40
2022-11-13T10:30:57.514Z,93.00
2022-11-13T10:33:25.669Z,92.50
2022-11-13T10:36:15.039Z,93.00
2022-11-13T10:38:50.136Z,92.80
2022-11-13T10:41:21.780Z,92.80
2022-11-13T10:43:52.677Z,92.20
2022-11-13T10:46:21.046Z,93.50
2022-11-13T10:48:47.744Z,92.90
2022-11-13T10:51:31.115Z,92.60
2022-11-13T10:53:58.574Z,92.70
2022-11-13T10:56:32.740Z,93.30
2022-11-13T10:59:08.918Z,93.10
2022-11-13T11:01:35.785Z,93.20
2022-11-13T11:04:06.331Z,92.60
2022-11-13T11:07:04.408Z,93.30
2022-11-13T11:09:21.284Z,93.20
2022-11-13T11:12:17.301Z,93.60
2022-11-13T11:14:53.043Z,92.90
2022-11-13T11:17:21.272Z,93.70
2022-11-13T11:19:52.409Z,93.30
2022-11-13T11:22:22.524Z,92.50
2022-11-13T11:24:56.426Z,92.90
2022-11-13T11:27:27.994Z,93.00
2022-11-13T11:30:05.004Z,93.40
2022-11-13T11:32:38.882Z,93.80
2022-11-13T11:35:17.081Z,93.20
2022-11-13T11:37:49.869Z,92.70
2022-11-13T11:40:20.947Z,92.60
2022-11-13T11:42:47.717Z,93.60
2022-11-13T11:45:16.753Z,94.20
2022-11-13T11:47:44.049Z,93.60
2022-11-13T11:50:13.071Z,93.60
2022-11-13T11:52:55.529Z,93.60
2022-11-13T11:55:22.245Z,93.80
2022-11-13T11:57:58.330Z,94.10
2022-11-13T12:00:26.300Z,94.10
2022-11-13T12:03:11.138Z,94.20
2022-11-13T12:05:37.867Z,94.50
2022-11-13T12:08:23.376Z,94.30
2022-11-13T12:10:59.083Z,94.30
2022-11-13T12:13:40.180Z,94.50
2022-11-13T12:16:16.632Z,94.60
2022-11-13T12:18:55.405Z,94.50
2022-11-13T12:21:33.453Z,94.50
2022-11-13T12:24:15.825Z,94.70
2022-11-13T12:26:46.345Z,95.00
2022-11-13T12:29:27.438Z,95.20
2022-11-13T12:32:05.493Z,95.00
2022-11-13T12:34:42.541Z,94.70
2022-11-13T12:37:14.454Z,94.80
2022-11-13T12:39:44.124Z,94.20
2022-11-13T12:42:13.645Z,94.50
2022-11-13T12:44:47.234Z,94.90
2022-11-13T12:47:14.331Z,94.80
2022-11-13T12:49:41.097Z,94.90
2022-11-13T12:52:18.844Z,93.90
2022-11-13T12:54:45.630Z,94.00
2022-11-13T12:57:18.529Z,94.60
2022-11-13T12:59:47.589Z,94.90
2022-11-13T13:02:14.257Z,95.20
2022-11-13T13:04:53.280Z,95.50
2022-11-13T13:07:23.347Z,95.60
2022-11-13T13:09:59.164Z,95.70
2022-11-13T13:12:41.140Z,95.70
2022-11-13T13:15:31.580Z,95.90
2022-11-13T13:18:04.131Z,96.00
2022-11-13T13:20:33.236Z,96.20
2022-11-13T13:23:01.597Z,96.10
2022-11-13T13:25:30.577Z,96.10
2022-11-13T13:27:58.562Z,96.10
2022-11-13T13:30:26.432Z,96.20
2022-11-13T13:33:11.784Z,96.20
2022-11-13T13:36:01.556Z,96.20
2022-11-13T13:38:35.694Z,96.30
2022-11-13T13:41:12.387Z,96.30
2022-11-13T13:43:51.339Z,96.20
2022-11-13T13:46:22.571Z,96.40
2022-11-13T13:48:50.140Z,96.40
2022-11-13T13:51:21.319Z,96.40
2022-11-13T13:53:48.557Z,96.40
2022-11-13T13:56:15.443Z,96.40
2022-11-13T13:58:42.504Z,96.50
2022-11-13T14:01:19.039Z,96.50
2022-11-13T14:03:46.617Z,96.60
2022-11-13T14:06:24.567Z,96.50
2022-11-13T14:08:51.424Z,96.50
2022-11-13T14:11:22.217Z,96.60
2022-11-13T14:13:48.876Z,96.60
2022-11-13T14:16:15.735Z,96.60
2022-11-13T14:18:42.433Z,96.70
2022-11-13T14:21:11.869Z,96.70
2022-11-13T14:23:47.149Z,96.70
2022-11-13T14:26:14.231Z,96.60
2022-11-13T14:28:47.742Z,96.70
2022-11-13T14:31:17.833Z,96.80
2022-11-13T14:33:48.294Z,96.80
2022-11-13T14:36:15.798Z,96.70
2022-11-13T14:38:51.849Z,96.80
2022-11-13T14:41:39.584Z,96.80
2022-11-13T14:44:06.743Z,96.80
2022-11-13T14:46:44.393Z,96.80
2022-11-13T14:49:27.285Z,96.80
2022-11-13T14:51:54.696Z,96.80
2022-11-13T14:57:24.221Z,96.80
2022-11-13T14:59:51.186Z,96.80
2022-11-13T15:02:17.960Z,96.80
2022-11-13T15:04:44.693Z,96.90
2022-11-13T15:07:31.373Z,96.90
2022-11-13T15:09:58.303Z,96.90
2022-11-13T15:12:25.063Z,97.00
2022-11-13T15:14:52.541Z,96.90
2022-11-13T15:17:20.970Z,97.00
2022-11-13T15:19:48.876Z,96.90
2022-11-13T15:22:31.046Z,96.90
2022-11-13T15:24:57.916Z,96.90
2022-11-13T15:27:24.661Z,97.00
2022-11-13T15:29:51.659Z,97.00
2022-11-13T15:32:18.404Z,97.00
2022-11-13T15:34:45.304Z,96.90
2022-11-13T15:37:15.891Z,97.00
2022-11-13T15:39:42.687Z,97.00
2022-11-13T15:42:17.839Z,97.10
2022-11-13T15:44:44.623Z,97.00
2022-11-13T15:47:31.764Z,97.10
2022-11-13T15:50:15.290Z,97.10
2022-11-13T15:52:44.167Z,97.10
2022-11-13T15:55:31.156Z,97.00
2022-11-13T15:57:58.488Z,97.10
2022-11-13T16:00:26.580Z,97.00
2022-11-13T16:02:55.769Z,97.10
2022-11-13T16:05:26.735Z,97.10
2022-11-13T16:07:53.656Z,97.20
2022-11-13T16:10:25.241Z,97.10
2022-11-13T16:12:52.720Z,97.10
2022-11-13T16:15:19.892Z,97.10
2022-11-13T16:17:48.533Z,97.10
2022-11-13T16:20:16.805Z,97.20
2022-11-13T16:22:44.139Z,97.20
2022-11-13T16:25:12.136Z,97.20
2022-11-13T16:27:39.684Z,97.20
2022-11-13T16:30:07.358Z,97.20
2022-11-13T16:32:34.179Z,97.20
2022-11-13T16:35:00.993Z,97.20
2022-11-13T16:37:27.696Z,97.20
2022-11-13T16:39:54.396Z,97.20
2022-11-13T16:42:21.128Z,97.30
2022-11-13T16:44:47.871Z,97.30
2022-11-13T16:47:24.808Z,97.30
2022-11-13T16:49:52.105Z,97.30
2022-11-13T16:52:19.304Z,97.30
2022-11-13T16:54:46.177Z,97.20
2022-11-13T16:57:13.731Z,97.20
2022-11-13T16:59:40.891Z,97.20
2022-11-13T17:02:13.082Z,97.30
2022-11-13T17:04:39.892Z,97.20
2022-11-13T17:07:06.669Z,97.20
2022-11-13T17:09:33.457Z,97.20
2022-11-13T17:12:00.189Z,97.30
2022-11-13T17:14:26.926Z,97.30
2022-11-13T17:16:53.677Z,97.30
2022-11-13T17:19:20.452Z,97.30
2022-11-13T17:21:47.145Z,97.30
2022-11-13T17:24:13.891Z,97.30
2022-11-13T17:26:40.593Z,97.30
2022-11-13T17:29:07.432Z,97.30
2022-11-13T17:31:34.301Z,97.30
2022-11-13T17:34:01.064Z,97.30
2022-11-13T17:36:27.799Z,97.40
2022-11-13T17:38:55.300Z,97.40
2022-11-13T17:41:22.029Z,97.40
2022-11-13T17:43:48.816Z,97.30
2022-11-13T17:46:16.431Z,97.30
2022-11-13T17:48:43.748Z,97.40
2022-11-13T17:51:12.024Z,97.40
2022-11-13T17:53:38.913Z,97.30
2022-11-13T17:56:08.131Z,97.40
2022-11-13T17:58:40.546Z,97.30
2022-11-13T18:01:11.725Z,97.40
2022-11-13T18:03:38.831Z,97.30
2022-11-13T18:06:07.215Z,97.40
2022-11-13T18:08:34.090Z,97.30
2022-11-13T18:11:07.127Z,97.30
2022-11-13T18:13:33.977Z,97.40
2022-11-13T18:16:07.717Z,97.30
2022-11-13T18:18:34.928Z,97.30
2022-11-13T18:21:23.185Z,97.40
2022-11-13T18:23:56.107Z,97.40
2022-11-13T18:26:22.931Z,97.40
2022-11-13T18:28:49.690Z,97.40
2022-11-13T18:31:17.915Z,97.40
2022-11-13T18:33:44.812Z,97.40
2022-11-13T18:36:11.635Z,97.40
2022-11-13T18:38:38.437Z,97.40
2022-11-13T18:41:09.730Z,97.50
2022-11-13T18:43:37.034Z,97.40
2022-11-13T18:46:05.140Z,97.40
2022-11-13T18:48:32.789Z,97.30
2022-11-13T18:51:00.853Z,97.50
2022-11-13T18:53:29.084Z,97.50
2022-11-13T18:56:03.257Z,97.40
2022-11-13T18:58:30.774Z,97.50
2022-11-13T19:01:07.279Z,97.50
2022-11-13T19:03:34.034Z,97.40
2022-11-13T19:06:00.833Z,97.40
2022-11-13T19:08:27.902Z,97.40
2022-11-13T19:10:54.897Z,97.40
2022-11-13T19:13:21.583Z,97.50
2022-11-13T19:15:50.149Z,97.50
2022-11-13T19:18:16.970Z,97.50
2022-11-13T19:20:43.651Z,97.40
2022-11-13T19:23:10.347Z,97.50
2022-11-13T19:25:37.157Z,97.50
2022-11-13T19:28:03.910Z,97.40
2022-11-13T19:30:30.607Z,97.50
2022-11-13T19:32:57.457Z,97.50
2022-11-13T19:35:25.749Z,97.50
2022-11-13T19:37:55.999Z,97.50
2022-11-13T19:40:22.863Z,97.50
2022-11-13T19:42:49.593Z,97.50
2022-11-13T19:45:16.277Z,97.40
2022-11-13T19:47:43.087Z,97.40
2022-11-13T19:50:10.361Z,97.40
2022-11-13T19:52:37.113Z,97.90
2022-11-13T19:55:04.114Z,97.60
2022-11-13T19:57:30.889Z,97.50
2022-11-13T19:59:57.614Z,97.50
2022-11-13T20:02:24.565Z,97.50
2022-11-13T20:04:51.307Z,97.40
2022-11-13T20:07:18.085Z,97.50
2022-11-13T20:09:44.946Z,97.40
2022-11-13T20:12:11.667Z,97.50
2022-11-13T20:14:38.731Z,97.50
2022-11-13T20:17:05.641Z,97.40
2022-11-13T20:19:32.348Z,97.40
2022-11-13T20:21:59.945Z,97.40
2022-11-13T20:24:26.780Z,97.50
2022-11-13T20:26:53.477Z,97.40
2022-11-13T20:29:20.179Z,97.70
2022-11-13T20:31:47.072Z,97.50
2022-11-13T20:34:14.639Z,97.50
2022-11-13T20:36:41.381Z,97.50
2022-11-13T20:39:09.441Z,97.50
2022-11-13T20:41:36.877Z,97.50
2022-11-13T20:44:03.719Z,97.60
2022-11-13T20:46:30.723Z,97.60
2022-11-13T20:48:57.606Z,97.60
2022-11-13T20:51:25.738Z,97.60
2022-11-13T20:53:52.953Z,97.50
2022-11-13T20:56:20.400Z,97.50
2022-11-13T20:58:47.152Z,97.50
2022-11-13T21:01:24.912Z,97.50
2022-11-13T21:03:52.196Z,97.60
2022-11-13T21:06:20.340Z,97.70
2022-11-13T21:08:47.563Z,97.60
2022-11-13T21:11:15.884Z,97.50
2022-11-13T21:13:42.654Z,97.50
2022-11-13T21:16:09.820Z,97.50
2022-11-13T21:18:36.888Z,97.50
2022-11-13T21:21:04.976Z,97.60
2022-11-13T21:23:31.794Z,97.70
2022-11-13T21:25:59.417Z,97.60
2022-11-13T21:28:29.351Z,97.50
2022-11-13T21:31:02.221Z,97.60
2022-11-13T21:33:29.605Z,97.50
2022-11-13T21:35:56.405Z,97.50
2022-11-13T21:38:23.136Z,97.50
2022-11-13T21:41:17.551Z,97.50
2022-11-13T21:43:44.366Z,97.30
2022-11-13T21:46:11.072Z,97.30
2022-11-13T21:48:37.986Z,97.30
2022-11-13T21:51:05.005Z,97.30
2022-11-13T21:53:31.709Z,97.30
2022-11-13T21:55:58.417Z,97.40
2022-11-13T21:58:29.154Z,97.50
2022-11-13T22:00:56.162Z,97.40
2022-11-13T22:03:22.827Z,97.50
2022-11-13T22:05:49.628Z,97.40
2022-11-13T22:08:16.327Z,97.50
2022-11-13T22:10:43.034Z,97.50
2022-11-13T22:13:09.817Z,97.60
2022-11-13T22:15:36.548Z,97.60
2022-11-13T22:18:03.281Z,97.50
2022-11-13T22:20:30.142Z,97.40
2022-11-13T22:22:56.833Z,97.40
2022-11-13T22:25:23.818Z,97.50
2022-11-13T22:27:50.761Z,97.50
2022-11-13T22:30:17.498Z,97.50
2022-11-13T22:32:44.588Z,97.50
2022-11-13T22:35:11.384Z,97.50
2022-11-13T22:37:38.134Z,97.60
2022-11-13T22:40:05.007Z,97.50
2022-11-13T22:42:31.736Z,97.50
2022-11-13T22:44:58.517Z,97.70
2022-11-13T22:47:25.222Z,97.50
2022-11-13T22:49:51.926Z,97.50
2022-11-13T22:52:18.608Z,97.60
2022-11-13T22:54:45.294Z,97.70
2022-11-13T22:57:12.046Z,97.50
2022-11-13T22:59:38.722Z,97.60
2022-11-13T23:02:05.458Z,97.50
2022-11-13T23:04:32.207Z,97.70
2022-11-13T23:06:58.975Z,97.50
2022-11-13T23:09:27.198Z,97.50
2022-11-13T23:11:54.062Z,97.60
2022-11-13T23:14:21.006Z,97.70
2022-11-13T23:16:47.699Z,97.60
2022-11-13T23:19:14.436Z,97.70
2022-11-13T23:21:41.190Z,97.60
2022-11-13T23:24:10.018Z,97.60
2022-11-13T23:26:36.892Z,97.40
2022-11-13T23:29:03.575Z,97.50
2022-11-13T23:31:30.252Z,97.40
2022-11-13T23:33:57.005Z,97.50
2022-11-13T23:36:23.947Z,97.60
2022-11-13T23:38:50.629Z,97.60
2022-11-13T23:41:17.439Z,97.50
2022-11-13T23:46:30.917Z,97.40
2022-11-13T23:48:57.625Z,97.50
2022-11-13T23:51:24.322Z,97.60
2022-11-13T23:53:51.155Z,97.70
2022-11-13T23:56:18.079Z,97.70
2022-11-13T23:58:44.811Z,97.50
